sensor_id;sensor_type;location;lat;lon;timestamp;P1;durP1;ratioP1;P2;durP2;ratioP2
39540;SDS011;25219;52.244;21.006;2022-08-21T00:00:23;5.87;;;3.27;;
39540;SDS011;25219;52.244;21.006;2022-08-21T00:02:50;5.97;;;3.42;;
39540;SDS011;25219;52.244;21.006;2022-08-21T00:05:16;7.30;;;3.42;;
39540;SDS011;25219;52.244;21.006;2022-08-21T00:07:41;7.33;;;5.37;;
39540;SDS011;25219;52.244;21.006;2022-08-21T00:10:07;10.98;;;3.97;;
39540;SDS011;25219;52.244;21.006;2022-08-21T00:12:32;10.07;;;3.78;;
39540;SDS011;25219;52.244;21.006;2022-08-21T00:14:58;4.33;;;3.20;;
39540;SDS011;25219;52.244;21.006;2022-08-21T00:17:23;6.00;;;3.45;;
39540;SDS011;25219;52.244;21.006;2022-08-21T00:19:48;6.05;;;3.67;;
39540;SDS011;25219;52.244;21.006;2022-08-21T00:22:13;7.07;;;4.03;;
39540;SDS011;25219;52.244;21.006;2022-08-21T00:24:38;7.85;;;3.80;;
39540;SDS011;25219;52.244;21.006;2022-08-21T00:27:04;7.70;;;4.67;;
39540;SDS011;25219;52.244;21.006;2022-08-21T00:29:29;7.27;;;3.93;;
39540;SDS011;25219;52.244;21.006;2022-08-21T00:31:54;8.00;;;3.90;;
39540;SDS011;25219;52.244;21.006;2022-08-21T00:34:19;6.83;;;4.00;;
39540;SDS011;25219;52.244;21.006;2022-08-21T00:36:45;7.30;;;4.07;;
39540;SDS011;25219;52.244;21.006;2022-08-21T00:39:10;11.03;;;4.57;;
39540;SDS011;25219;52.244;21.006;2022-08-21T00:41:36;7.90;;;3.37;;
39540;SDS011;25219;52.244;21.006;2022-08-21T00:44:01;5.40;;;3.88;;
39540;SDS011;25219;52.244;21.006;2022-08-21T00:46:27;4.88;;;3.75;;
39540;SDS011;25219;52.244;21.006;2022-08-21T00:48:52;4.67;;;3.50;;
39540;SDS011;25219;52.244;21.006;2022-08-21T00:51:19;6.45;;;4.07;;
39540;SDS011;25219;52.244;21.006;2022-08-21T00:53:48;4.88;;;3.45;;
39540;SDS011;25219;52.244;21.006;2022-08-21T00:56:14;5.97;;;3.88;;
39540;SDS011;25219;52.244;21.006;2022-08-21T00:58:39;3.97;;;3.23;;
39540;SDS011;25219;52.244;21.006;2022-08-21T01:01:06;6.30;;;3.70;;
39540;SDS011;25219;52.244;21.006;2022-08-21T01:03:32;10.38;;;3.88;;
39540;SDS011;25219;52.244;21.006;2022-08-21T01:05:57;9.82;;;3.28;;
39540;SDS011;25219;52.244;21.006;2022-08-21T01:08:22;9.83;;;3.53;;
39540;SDS011;25219;52.244;21.006;2022-08-21T01:10:48;6.63;;;3.33;;
39540;SDS011;25219;52.244;21.006;2022-08-21T01:13:14;6.30;;;3.65;;
39540;SDS011;25219;52.244;21.006;2022-08-21T01:15:42;7.18;;;3.47;;
39540;SDS011;25219;52.244;21.006;2022-08-21T01:18:09;8.00;;;3.88;;
39540;SDS011;25219;52.244;21.006;2022-08-21T01:20:36;7.43;;;3.72;;
39540;SDS011;25219;52.244;21.006;2022-08-21T01:23:02;5.47;;;3.95;;
39540;SDS011;25219;52.244;21.006;2022-08-21T01:25:27;5.70;;;3.17;;
39540;SDS011;25219;52.244;21.006;2022-08-21T01:27:53;6.00;;;3.27;;
39540;SDS011;25219;52.244;21.006;2022-08-21T01:30:20;6.57;;;3.30;;
39540;SDS011;25219;52.244;21.006;2022-08-21T01:32:45;9.38;;;3.72;;
39540;SDS011;25219;52.244;21.006;2022-08-21T01:35:13;6.38;;;4.18;;
39540;SDS011;25219;52.244;21.006;2022-08-21T01:37:38;9.45;;;3.97;;
39540;SDS011;25219;52.244;21.006;2022-08-21T01:40:04;4.65;;;3.53;;
39540;SDS011;25219;52.244;21.006;2022-08-21T01:42:29;7.60;;;3.50;;
39540;SDS011;25219;52.244;21.006;2022-08-21T01:44:55;5.23;;;3.53;;
39540;SDS011;25219;52.244;21.006;2022-08-21T01:47:21;6.85;;;3.25;;
39540;SDS011;25219;52.244;21.006;2022-08-21T01:49:46;7.17;;;4.30;;
39540;SDS011;25219;52.244;21.006;2022-08-21T01:52:11;8.30;;;3.77;;
39540;SDS011;25219;52.244;21.006;2022-08-21T01:54:37;4.63;;;3.13;;
39540;SDS011;25219;52.244;21.006;2022-08-21T01:57:02;6.63;;;3.50;;
39540;SDS011;25219;52.244;21.006;2022-08-21T01:59:28;4.30;;;3.35;;
39540;SDS011;25219;52.244;21.006;2022-08-21T02:01:53;7.00;;;3.60;;
39540;SDS011;25219;52.244;21.006;2022-08-21T02:04:21;3.75;;;3.33;;
39540;SDS011;25219;52.244;21.006;2022-08-21T02:06:46;7.20;;;3.20;;
39540;SDS011;25219;52.244;21.006;2022-08-21T02:09:12;7.70;;;4.17;;
39540;SDS011;25219;52.244;21.006;2022-08-21T02:11:37;6.47;;;3.85;;
39540;SDS011;25219;52.244;21.006;2022-08-21T02:14:09;6.95;;;3.95;;
39540;SDS011;25219;52.244;21.006;2022-08-21T02:16:35;4.43;;;3.33;;
39540;SDS011;25219;52.244;21.006;2022-08-21T02:19:00;5.78;;;3.42;;
39540;SDS011;25219;52.244;21.006;2022-08-21T02:21:25;5.30;;;3.30;;
39540;SDS011;25219;52.244;21.006;2022-08-21T02:23:51;4.22;;;3.50;;
39540;SDS011;25219;52.244;21.006;2022-08-21T02:26:16;6.43;;;3.60;;
39540;SDS011;25219;52.244;21.006;2022-08-21T02:28:41;6.07;;;3.43;;
39540;SDS011;25219;52.244;21.006;2022-08-21T02:31:07;5.72;;;3.70;;
39540;SDS011;25219;52.244;21.006;2022-08-21T02:33:32;8.27;;;3.73;;
39540;SDS011;25219;52.244;21.006;2022-08-21T02:35:58;4.50;;;3.38;;
39540;SDS011;25219;52.244;21.006;2022-08-21T02:38:24;7.20;;;3.67;;
39540;SDS011;25219;52.244;21.006;2022-08-21T02:40:51;4.43;;;3.40;;
39540;SDS011;25219;52.244;21.006;2022-08-21T02:43:17;12.25;;;3.60;;
39540;SDS011;25219;52.244;21.006;2022-08-21T02:45:42;4.10;;;3.65;;
39540;SDS011;25219;52.244;21.006;2022-08-21T02:48:10;7.05;;;3.28;;
39540;SDS011;25219;52.244;21.006;2022-08-21T02:50:40;5.43;;;3.47;;
39540;SDS011;25219;52.244;21.006;2022-08-21T02:53:06;10.10;;;5.43;;
39540;SDS011;25219;52.244;21.006;2022-08-21T02:55:32;4.47;;;3.13;;
39540;SDS011;25219;52.244;21.006;2022-08-21T02:57:57;7.53;;;3.55;;
39540;SDS011;25219;52.244;21.006;2022-08-21T03:00:23;6.45;;;3.70;;
39540;SDS011;25219;52.244;21.006;2022-08-21T03:02:49;5.68;;;3.60;;
39540;SDS011;25219;52.244;21.006;2022-08-21T03:05:14;4.55;;;3.20;;
39540;SDS011;25219;52.244;21.006;2022-08-21T03:07:40;9.27;;;3.85;;
39540;SDS011;25219;52.244;21.006;2022-08-21T03:10:05;5.75;;;3.50;;
39540;SDS011;25219;52.244;21.006;2022-08-21T03:12:31;4.35;;;3.28;;
39540;SDS011;25219;52.244;21.006;2022-08-21T03:14:56;5.27;;;3.63;;
39540;SDS011;25219;52.244;21.006;2022-08-21T03:17:22;4.75;;;3.30;;
39540;SDS011;25219;52.244;21.006;2022-08-21T03:19:47;6.33;;;3.50;;
39540;SDS011;25219;52.244;21.006;2022-08-21T03:22:12;6.53;;;3.43;;
39540;SDS011;25219;52.244;21.006;2022-08-21T03:24:38;4.10;;;3.40;;
39540;SDS011;25219;52.244;21.006;2022-08-21T03:27:03;4.33;;;3.57;;
39540;SDS011;25219;52.244;21.006;2022-08-21T03:29:28;7.43;;;3.60;;
39540;SDS011;25219;52.244;21.006;2022-08-21T03:31:53;8.00;;;3.90;;
39540;SDS011;25219;52.244;21.006;2022-08-21T03:34:19;6.22;;;3.38;;
39540;SDS011;25219;52.244;21.006;2022-08-21T03:36:44;4.47;;;3.58;;
39540;SDS011;25219;52.244;21.006;2022-08-21T03:39:09;4.27;;;3.40;;
39540;SDS011;25219;52.244;21.006;2022-08-21T03:41:34;8.33;;;3.43;;
39540;SDS011;25219;52.244;21.006;2022-08-21T03:43:59;4.60;;;3.53;;
39540;SDS011;25219;52.244;21.006;2022-08-21T03:46:25;6.03;;;3.67;;
39540;SDS011;25219;52.244;21.006;2022-08-21T03:48:50;5.40;;;3.08;;
39540;SDS011;25219;52.244;21.006;2022-08-21T03:51:17;4.82;;;3.60;;
39540;SDS011;25219;52.244;21.006;2022-08-21T03:53:42;5.40;;;3.73;;
39540;SDS011;25219;52.244;21.006;2022-08-21T03:56:07;6.00;;;4.10;;
39540;SDS011;25219;52.244;21.006;2022-08-21T03:58:33;4.07;;;3.40;;
39540;SDS011;25219;52.244;21.006;2022-08-21T04:00:59;4.20;;;3.40;;
39540;SDS011;25219;52.244;21.006;2022-08-21T04:03:25;5.43;;;3.40;;
39540;SDS011;25219;52.244;21.006;2022-08-21T04:05:50;8.25;;;3.72;;
39540;SDS011;25219;52.244;21.006;2022-08-21T04:08:16;4.80;;;4.05;;
39540;SDS011;25219;52.244;21.006;2022-08-21T04:10:46;7.55;;;3.53;;
39540;SDS011;25219;52.244;21.006;2022-08-21T04:13:11;5.38;;;3.78;;
39540;SDS011;25219;52.244;21.006;2022-08-21T04:15:37;6.00;;;3.30;;
39540;SDS011;25219;52.244;21.006;2022-08-21T04:18:02;5.40;;;3.35;;
39540;SDS011;25219;52.244;21.006;2022-08-21T04:20:28;5.28;;;3.53;;
39540;SDS011;25219;52.244;21.006;2022-08-21T04:22:53;5.22;;;3.53;;
39540;SDS011;25219;52.244;21.006;2022-08-21T04:25:19;4.87;;;3.37;;
39540;SDS011;25219;52.244;21.006;2022-08-21T04:27:45;3.58;;;3.25;;
39540;SDS011;25219;52.244;21.006;2022-08-21T04:30:11;8.10;;;5.10;;
39540;SDS011;25219;52.244;21.006;2022-08-21T04:32:37;4.88;;;3.65;;
39540;SDS011;25219;52.244;21.006;2022-08-21T04:35:04;6.30;;;4.05;;
39540;SDS011;25219;52.244;21.006;2022-08-21T04:37:30;4.90;;;3.60;;
39540;SDS011;25219;52.244;21.006;2022-08-21T04:39:55;7.95;;;4.03;;
39540;SDS011;25219;52.244;21.006;2022-08-21T04:42:22;5.00;;;3.55;;
39540;SDS011;25219;52.244;21.006;2022-08-21T04:44:48;6.60;;;3.70;;
39540;SDS011;25219;52.244;21.006;2022-08-21T04:47:13;6.93;;;4.18;;
39540;SDS011;25219;52.244;21.006;2022-08-21T04:49:39;6.30;;;3.50;;
39540;SDS011;25219;52.244;21.006;2022-08-21T04:52:04;4.97;;;3.63;;
39540;SDS011;25219;52.244;21.006;2022-08-21T04:54:29;6.23;;;3.63;;
39540;SDS011;25219;52.244;21.006;2022-08-21T04:56:56;6.30;;;3.47;;
39540;SDS011;25219;52.244;21.006;2022-08-21T04:59:26;4.90;;;3.90;;
39540;SDS011;25219;52.244;21.006;2022-08-21T05:01:52;5.55;;;3.60;;
39540;SDS011;25219;52.244;21.006;2022-08-21T05:04:21;5.38;;;3.80;;
39540;SDS011;25219;52.244;21.006;2022-08-21T05:06:47;4.80;;;3.13;;
39540;SDS011;25219;52.244;21.006;2022-08-21T05:09:14;6.03;;;3.85;;
39540;SDS011;25219;52.244;21.006;2022-08-21T05:11:40;8.02;;;3.38;;
39540;SDS011;25219;52.244;21.006;2022-08-21T05:14:06;6.55;;;3.75;;
39540;SDS011;25219;52.244;21.006;2022-08-21T05:16:32;5.33;;;3.93;;
39540;SDS011;25219;52.244;21.006;2022-08-21T05:18:57;8.83;;;3.90;;
39540;SDS011;25219;52.244;21.006;2022-08-21T05:21:23;5.18;;;3.30;;
39540;SDS011;25219;52.244;21.006;2022-08-21T05:23:48;4.27;;;3.40;;
39540;SDS011;25219;52.244;21.006;2022-08-21T05:26:13;4.18;;;3.60;;
39540;SDS011;25219;52.244;21.006;2022-08-21T05:28:39;7.45;;;4.00;;
39540;SDS011;25219;52.244;21.006;2022-08-21T05:31:04;4.23;;;3.37;;
39540;SDS011;25219;52.244;21.006;2022-08-21T05:33:29;4.70;;;3.42;;
39540;SDS011;25219;52.244;21.006;2022-08-21T05:35:54;6.00;;;3.25;;
39540;SDS011;25219;52.244;21.006;2022-08-21T05:38:23;6.78;;;4.40;;
39540;SDS011;25219;52.244;21.006;2022-08-21T05:40:48;7.30;;;3.55;;
39540;SDS011;25219;52.244;21.006;2022-08-21T05:43:14;5.57;;;3.60;;
39540;SDS011;25219;52.244;21.006;2022-08-21T05:45:39;6.60;;;4.20;;
39540;SDS011;25219;52.244;21.006;2022-08-21T05:48:05;7.53;;;3.80;;
39540;SDS011;25219;52.244;21.006;2022-08-21T05:50:31;5.75;;;3.65;;
39540;SDS011;25219;52.244;21.006;2022-08-21T05:52:56;10.07;;;3.80;;
39540;SDS011;25219;52.244;21.006;2022-08-21T05:55:21;8.87;;;4.27;;
39540;SDS011;25219;52.244;21.006;2022-08-21T05:57:46;6.40;;;3.70;;
39540;SDS011;25219;52.244;21.006;2022-08-21T06:00:12;4.53;;;3.88;;
39540;SDS011;25219;52.244;21.006;2022-08-21T06:02:37;6.78;;;3.58;;
39540;SDS011;25219;52.244;21.006;2022-08-21T06:05:03;4.82;;;3.95;;
39540;SDS011;25219;52.244;21.006;2022-08-21T06:07:28;5.55;;;4.10;;
39540;SDS011;25219;52.244;21.006;2022-08-21T06:09:53;8.45;;;3.92;;
39540;SDS011;25219;52.244;21.006;2022-08-21T06:12:19;7.00;;;4.07;;
39540;SDS011;25219;52.244;21.006;2022-08-21T06:14:44;9.33;;;4.50;;
39540;SDS011;25219;52.244;21.006;2022-08-21T06:17:10;4.75;;;3.25;;
39540;SDS011;25219;52.244;21.006;2022-08-21T06:19:36;7.18;;;3.75;;
39540;SDS011;25219;52.244;21.006;2022-08-21T06:22:02;7.05;;;4.25;;
39540;SDS011;25219;52.244;21.006;2022-08-21T06:24:27;4.93;;;3.65;;
39540;SDS011;25219;52.244;21.006;2022-08-21T06:26:52;6.40;;;3.85;;
39540;SDS011;25219;52.244;21.006;2022-08-21T06:29:18;7.23;;;3.97;;
39540;SDS011;25219;52.244;21.006;2022-08-21T06:31:44;8.35;;;4.15;;
39540;SDS011;25219;52.244;21.006;2022-08-21T06:34:09;5.63;;;4.30;;
39540;SDS011;25219;52.244;21.006;2022-08-21T06:36:35;13.10;;;4.30;;
39540;SDS011;25219;52.244;21.006;2022-08-21T06:39:00;5.17;;;3.70;;
39540;SDS011;25219;52.244;21.006;2022-08-21T06:41:25;8.20;;;4.70;;
39540;SDS011;25219;52.244;21.006;2022-08-21T06:43:51;10.30;;;4.05;;
39540;SDS011;25219;52.244;21.006;2022-08-21T06:46:16;4.43;;;3.30;;
39540;SDS011;25219;52.244;21.006;2022-08-21T06:48:41;5.80;;;3.55;;
39540;SDS011;25219;52.244;21.006;2022-08-21T06:51:06;4.83;;;3.73;;
39540;SDS011;25219;52.244;21.006;2022-08-21T06:53:31;6.07;;;3.90;;
39540;SDS011;25219;52.244;21.006;2022-08-21T06:55:57;5.20;;;3.55;;
39540;SDS011;25219;52.244;21.006;2022-08-21T06:58:22;5.00;;;3.73;;
39540;SDS011;25219;52.244;21.006;2022-08-21T07:00:48;6.93;;;4.00;;
39540;SDS011;25219;52.244;21.006;2022-08-21T07:03:28;4.25;;;3.83;;
39540;SDS011;25219;52.244;21.006;2022-08-21T07:05:53;8.15;;;3.55;;
39540;SDS011;25219;52.244;21.006;2022-08-21T07:08:19;7.07;;;4.57;;
39540;SDS011;25219;52.244;21.006;2022-08-21T07:10:44;8.00;;;3.67;;
39540;SDS011;25219;52.244;21.006;2022-08-21T07:13:10;6.10;;;3.80;;
39540;SDS011;25219;52.244;21.006;2022-08-21T07:15:35;4.70;;;3.58;;
39540;SDS011;25219;52.244;21.006;2022-08-21T07:18:00;6.10;;;3.50;;
39540;SDS011;25219;52.244;21.006;2022-08-21T07:20:27;6.40;;;4.38;;
39540;SDS011;25219;52.244;21.006;2022-08-21T07:22:52;7.70;;;4.05;;
39540;SDS011;25219;52.244;21.006;2022-08-21T07:25:17;7.00;;;4.18;;
39540;SDS011;25219;52.244;21.006;2022-08-21T07:27:43;5.45;;;4.10;;
39540;SDS011;25219;52.244;21.006;2022-08-21T07:30:08;6.97;;;4.15;;
39540;SDS011;25219;52.244;21.006;2022-08-21T07:32:33;12.00;;;3.85;;
39540;SDS011;25219;52.244;21.006;2022-08-21T07:34:58;5.40;;;4.30;;
39540;SDS011;25219;52.244;21.006;2022-08-21T07:37:24;3.93;;;3.60;;
39540;SDS011;25219;52.244;21.006;2022-08-21T07:39:49;5.20;;;4.23;;
39540;SDS011;25219;52.244;21.006;2022-08-21T07:42:16;4.25;;;3.58;;
39540;SDS011;25219;52.244;21.006;2022-08-21T07:44:41;5.88;;;4.05;;
39540;SDS011;25219;52.244;21.006;2022-08-21T07:47:07;7.33;;;4.00;;
39540;SDS011;25219;52.244;21.006;2022-08-21T07:49:32;6.20;;;3.57;;
39540;SDS011;25219;52.244;21.006;2022-08-21T07:51:57;4.13;;;3.58;;
39540;SDS011;25219;52.244;21.006;2022-08-21T07:54:22;6.53;;;3.60;;
39540;SDS011;25219;52.244;21.006;2022-08-21T07:56:47;5.70;;;3.58;;
39540;SDS011;25219;52.244;21.006;2022-08-21T07:59:12;5.82;;;3.72;;
39540;SDS011;25219;52.244;21.006;2022-08-21T08:01:38;8.87;;;3.67;;
39540;SDS011;25219;52.244;21.006;2022-08-21T08:04:03;5.80;;;3.90;;
39540;SDS011;25219;52.244;21.006;2022-08-21T08:06:28;3.95;;;3.45;;
39540;SDS011;25219;52.244;21.006;2022-08-21T08:08:54;4.82;;;3.63;;
39540;SDS011;25219;52.244;21.006;2022-08-21T08:11:19;9.33;;;4.33;;
39540;SDS011;25219;52.244;21.006;2022-08-21T08:13:46;8.23;;;3.83;;
39540;SDS011;25219;52.244;21.006;2022-08-21T08:16:11;7.40;;;3.83;;
39540;SDS011;25219;52.244;21.006;2022-08-21T08:18:36;6.97;;;3.20;;
39540;SDS011;25219;52.244;21.006;2022-08-21T08:21:02;7.70;;;3.63;;
39540;SDS011;25219;52.244;21.006;2022-08-21T08:23:27;5.28;;;3.92;;
39540;SDS011;25219;52.244;21.006;2022-08-21T08:25:53;7.23;;;3.40;;
39540;SDS011;25219;52.244;21.006;2022-08-21T08:28:18;7.73;;;3.47;;
39540;SDS011;25219;52.244;21.006;2022-08-21T08:30:46;5.43;;;3.67;;
39540;SDS011;25219;52.244;21.006;2022-08-21T08:33:11;5.47;;;3.58;;
39540;SDS011;25219;52.244;21.006;2022-08-21T08:35:36;8.00;;;4.93;;
39540;SDS011;25219;52.244;21.006;2022-08-21T08:38:01;6.43;;;3.23;;
39540;SDS011;25219;52.244;21.006;2022-08-21T08:40:31;3.58;;;2.83;;
39540;SDS011;25219;52.244;21.006;2022-08-21T08:45:23;4.93;;;4.25;;
39540;SDS011;25219;52.244;21.006;2022-08-21T08:47:52;5.45;;;2.95;;
39540;SDS011;25219;52.244;21.006;2022-08-21T08:50:38;4.32;;;3.40;;
39540;SDS011;25219;52.244;21.006;2022-08-21T08:53:05;4.85;;;2.90;;
39540;SDS011;25219;52.244;21.006;2022-08-21T08:55:33;3.03;;;2.72;;
39540;SDS011;25219;52.244;21.006;2022-08-21T08:57:59;3.78;;;2.70;;
39540;SDS011;25219;52.244;21.006;2022-08-21T09:00:25;6.53;;;2.85;;
39540;SDS011;25219;52.244;21.006;2022-08-21T09:02:52;5.77;;;3.20;;
39540;SDS011;25219;52.244;21.006;2022-08-21T09:05:20;4.97;;;3.22;;
39540;SDS011;25219;52.244;21.006;2022-08-21T09:10:21;6.47;;;2.85;;
39540;SDS011;25219;52.244;21.006;2022-08-21T09:15:54;7.80;;;3.35;;
39540;SDS011;25219;52.244;21.006;2022-08-21T09:18:28;4.43;;;2.63;;
39540;SDS011;25219;52.244;21.006;2022-08-21T09:23:50;5.10;;;2.83;;
39540;SDS011;25219;52.244;21.006;2022-08-21T09:26:18;3.78;;;2.75;;
39540;SDS011;25219;52.244;21.006;2022-08-21T09:28:44;7.80;;;2.65;;
39540;SDS011;25219;52.244;21.006;2022-08-21T09:31:21;3.45;;;2.60;;
39540;SDS011;25219;52.244;21.006;2022-08-21T09:33:46;4.85;;;2.92;;
39540;SDS011;25219;52.244;21.006;2022-08-21T09:36:11;4.33;;;2.97;;
39540;SDS011;25219;52.244;21.006;2022-08-21T09:38:36;4.13;;;2.83;;
39540;SDS011;25219;52.244;21.006;2022-08-21T09:41:04;3.78;;;3.17;;
39540;SDS011;25219;52.244;21.006;2022-08-21T09:43:29;2.80;;;2.50;;
39540;SDS011;25219;52.244;21.006;2022-08-21T09:48:38;5.30;;;2.65;;
39540;SDS011;25219;52.244;21.006;2022-08-21T09:51:05;5.38;;;3.10;;
39540;SDS011;25219;52.244;21.006;2022-08-21T09:53:31;5.90;;;4.75;;
39540;SDS011;25219;52.244;21.006;2022-08-21T09:56:00;4.50;;;2.88;;
39540;SDS011;25219;52.244;21.006;2022-08-21T09:58:46;6.07;;;2.88;;
39540;SDS011;25219;52.244;21.006;2022-08-21T10:01:13;9.82;;;3.90;;
39540;SDS011;25219;52.244;21.006;2022-08-21T10:03:39;7.60;;;2.58;;
39540;SDS011;25219;52.244;21.006;2022-08-21T10:06:05;4.43;;;2.70;;
39540;SDS011;25219;52.244;21.006;2022-08-21T10:08:33;11.48;;;2.90;;
39540;SDS011;25219;52.244;21.006;2022-08-21T10:11:04;6.90;;;3.75;;
39540;SDS011;25219;52.244;21.006;2022-08-21T10:13:40;3.38;;;3.08;;
39540;SDS011;25219;52.244;21.006;2022-08-21T10:18:35;7.17;;;2.97;;
39540;SDS011;25219;52.244;21.006;2022-08-21T10:21:09;4.50;;;3.05;;
39540;SDS011;25219;52.244;21.006;2022-08-21T10:26:05;6.77;;;3.00;;
39540;SDS011;25219;52.244;21.006;2022-08-21T10:28:35;2.47;;;2.28;;
39540;SDS011;25219;52.244;21.006;2022-08-21T10:31:06;3.40;;;2.90;;
39540;SDS011;25219;52.244;21.006;2022-08-21T10:36:01;3.78;;;2.80;;
39540;SDS011;25219;52.244;21.006;2022-08-21T10:41:23;6.53;;;2.53;;
39540;SDS011;25219;52.244;21.006;2022-08-21T10:44:06;3.88;;;2.33;;
39540;SDS011;25219;52.244;21.006;2022-08-21T10:51:38;3.38;;;2.78;;
39540;SDS011;25219;52.244;21.006;2022-08-21T10:54:29;5.55;;;2.38;;
39540;SDS011;25219;52.244;21.006;2022-08-21T10:56:51;6.90;;;2.88;;
39540;SDS011;25219;52.244;21.006;2022-08-21T11:01:58;3.80;;;2.40;;
39540;SDS011;25219;52.244;21.006;2022-08-21T11:04:28;12.88;;;2.70;;
39540;SDS011;25219;52.244;21.006;2022-08-21T11:07:11;4.72;;;2.50;;
39540;SDS011;25219;52.244;21.006;2022-08-21T11:09:42;8.93;;;2.50;;
39540;SDS011;25219;52.244;21.006;2022-08-21T11:17:14;5.75;;;2.75;;
39540;SDS011;25219;52.244;21.006;2022-08-21T11:19:48;3.70;;;2.78;;
39540;SDS011;25219;52.244;21.006;2022-08-21T11:25:00;4.93;;;2.00;;
39540;SDS011;25219;52.244;21.006;2022-08-21T11:27:36;3.13;;;2.30;;
39540;SDS011;25219;52.244;21.006;2022-08-21T11:30:03;3.05;;;2.50;;
39540;SDS011;25219;52.244;21.006;2022-08-21T11:35:03;2.20;;;2.00;;
39540;SDS011;25219;52.244;21.006;2022-08-21T11:40:01;3.58;;;2.08;;
39540;SDS011;25219;52.244;21.006;2022-08-21T11:47:39;2.53;;;2.17;;
39540;SDS011;25219;52.244;21.006;2022-08-21T11:50:14;5.28;;;2.65;;
39540;SDS011;25219;52.244;21.006;2022-08-21T11:57:55;3.90;;;2.10;;
39540;SDS011;25219;52.244;21.006;2022-08-21T12:00:31;2.60;;;2.30;;
39540;SDS011;25219;52.244;21.006;2022-08-21T12:02:59;4.03;;;2.30;;
39540;SDS011;25219;52.244;21.006;2022-08-21T12:05:32;7.53;;;2.30;;
39540;SDS011;25219;52.244;21.006;2022-08-21T12:10:34;4.70;;;2.28;;
39540;SDS011;25219;52.244;21.006;2022-08-21T12:13:08;2.60;;;2.10;;
39540;SDS011;25219;52.244;21.006;2022-08-21T12:15:34;3.40;;;2.45;;
39540;SDS011;25219;52.244;21.006;2022-08-21T12:18:03;3.88;;;2.08;;
39540;SDS011;25219;52.244;21.006;2022-08-21T12:25:39;5.05;;;3.17;;
39540;SDS011;25219;52.244;21.006;2022-08-21T12:28:09;2.63;;;1.95;;
39540;SDS011;25219;52.244;21.006;2022-08-21T12:30:36;3.35;;;2.05;;
39540;SDS011;25219;52.244;21.006;2022-08-21T12:33:03;8.40;;;3.33;;
39540;SDS011;25219;52.244;21.006;2022-08-21T12:35:37;3.55;;;2.28;;
39540;SDS011;25219;52.244;21.006;2022-08-21T12:38:18;3.97;;;2.50;;
39540;SDS011;25219;52.244;21.006;2022-08-21T12:43:33;3.60;;;2.10;;
39540;SDS011;25219;52.244;21.006;2022-08-21T12:45:59;5.07;;;2.45;;
39540;SDS011;25219;52.244;21.006;2022-08-21T12:48:42;3.92;;;2.17;;
39540;SDS011;25219;52.244;21.006;2022-08-21T12:51:13;6.00;;;2.50;;
39540;SDS011;25219;52.244;21.006;2022-08-21T12:53:44;3.05;;;2.30;;
39540;SDS011;25219;52.244;21.006;2022-08-21T12:56:13;3.60;;;2.65;;
39540;SDS011;25219;52.244;21.006;2022-08-21T12:58:45;2.97;;;2.45;;
39540;SDS011;25219;52.244;21.006;2022-08-21T13:03:49;3.72;;;2.17;;
39540;SDS011;25219;52.244;21.006;2022-08-21T13:06:16;3.13;;;2.35;;
39540;SDS011;25219;52.244;21.006;2022-08-21T13:08:41;2.33;;;2.13;;
39540;SDS011;25219;52.244;21.006;2022-08-21T13:11:07;3.05;;;2.50;;
39540;SDS011;25219;52.244;21.006;2022-08-21T13:13:34;3.15;;;2.75;;
39540;SDS011;25219;52.244;21.006;2022-08-21T13:16:00;4.40;;;2.57;;
39540;SDS011;25219;52.244;21.006;2022-08-21T13:18:27;3.53;;;2.65;;
39540;SDS011;25219;52.244;21.006;2022-08-21T13:21:02;4.22;;;2.38;;
39540;SDS011;25219;52.244;21.006;2022-08-21T13:23:28;4.57;;;2.50;;
39540;SDS011;25219;52.244;21.006;2022-08-21T13:25:54;4.90;;;2.55;;
39540;SDS011;25219;52.244;21.006;2022-08-21T13:28:19;3.53;;;2.78;;
39540;SDS011;25219;52.244;21.006;2022-08-21T13:30:46;4.60;;;2.95;;
39540;SDS011;25219;52.244;21.006;2022-08-21T13:33:12;4.13;;;2.10;;
39540;SDS011;25219;52.244;21.006;2022-08-21T13:38:19;6.80;;;2.65;;
39540;SDS011;25219;52.244;21.006;2022-08-21T13:40:49;5.32;;;2.70;;
39540;SDS011;25219;52.244;21.006;2022-08-21T13:43:15;7.85;;;2.90;;
39540;SDS011;25219;52.244;21.006;2022-08-21T13:45:43;6.25;;;2.70;;
39540;SDS011;25219;52.244;21.006;2022-08-21T13:48:08;4.10;;;2.42;;
39540;SDS011;25219;52.244;21.006;2022-08-21T13:50:35;6.03;;;2.00;;
39540;SDS011;25219;52.244;21.006;2022-08-21T13:53:03;5.93;;;2.70;;
39540;SDS011;25219;52.244;21.006;2022-08-21T13:55:35;3.42;;;2.22;;
39540;SDS011;25219;52.244;21.006;2022-08-21T13:58:02;7.18;;;2.42;;
39540;SDS011;25219;52.244;21.006;2022-08-21T14:00:29;3.30;;;2.67;;
39540;SDS011;25219;52.244;21.006;2022-08-21T14:02:59;3.40;;;2.45;;
39540;SDS011;25219;52.244;21.006;2022-08-21T14:05:27;5.18;;;2.80;;
39540;SDS011;25219;52.244;21.006;2022-08-21T14:08:03;3.88;;;2.58;;
39540;SDS011;25219;52.244;21.006;2022-08-21T14:10:29;2.97;;;2.55;;
39540;SDS011;25219;52.244;21.006;2022-08-21T14:12:57;7.53;;;2.70;;
39540;SDS011;25219;52.244;21.006;2022-08-21T14:15:25;2.88;;;2.20;;
39540;SDS011;25219;52.244;21.006;2022-08-21T14:17:50;4.45;;;2.20;;
39540;SDS011;25219;52.244;21.006;2022-08-21T14:20:30;3.92;;;2.75;;
39540;SDS011;25219;52.244;21.006;2022-08-21T14:22:57;4.40;;;2.78;;
39540;SDS011;25219;52.244;21.006;2022-08-21T14:27:54;4.38;;;2.50;;
39540;SDS011;25219;52.244;21.006;2022-08-21T14:30:22;5.50;;;3.00;;
39540;SDS011;25219;52.244;21.006;2022-08-21T14:32:51;3.42;;;2.60;;
39540;SDS011;25219;52.244;21.006;2022-08-21T14:35:16;3.23;;;2.93;;
39540;SDS011;25219;52.244;21.006;2022-08-21T14:37:43;2.92;;;2.33;;
39540;SDS011;25219;52.244;21.006;2022-08-21T14:40:08;4.47;;;2.20;;
39540;SDS011;25219;52.244;21.006;2022-08-21T14:42:34;3.13;;;2.03;;
39540;SDS011;25219;52.244;21.006;2022-08-21T14:45:00;3.57;;;2.17;;
39540;SDS011;25219;52.244;21.006;2022-08-21T14:47:26;4.22;;;2.80;;
39540;SDS011;25219;52.244;21.006;2022-08-21T14:49:51;3.10;;;2.53;;
39540;SDS011;25219;52.244;21.006;2022-08-21T14:52:18;4.55;;;2.70;;
39540;SDS011;25219;52.244;21.006;2022-08-21T14:54:44;3.95;;;3.22;;
39540;SDS011;25219;52.244;21.006;2022-08-21T14:57:10;3.20;;;2.57;;
39540;SDS011;25219;52.244;21.006;2022-08-21T14:59:35;4.10;;;2.38;;
39540;SDS011;25219;52.244;21.006;2022-08-21T15:02:01;2.80;;;2.30;;
39540;SDS011;25219;52.244;21.006;2022-08-21T15:04:28;4.07;;;2.22;;
39540;SDS011;25219;52.244;21.006;2022-08-21T15:06:54;3.27;;;2.50;;
39540;SDS011;25219;52.244;21.006;2022-08-21T15:09:19;6.83;;;2.47;;
39540;SDS011;25219;52.244;21.006;2022-08-21T15:11:44;3.72;;;2.28;;
39540;SDS011;25219;52.244;21.006;2022-08-21T15:14:10;2.63;;;2.03;;
39540;SDS011;25219;52.244;21.006;2022-08-21T15:16:38;3.22;;;2.25;;
39540;SDS011;25219;52.244;21.006;2022-08-21T15:19:03;4.00;;;2.37;;
39540;SDS011;25219;52.244;21.006;2022-08-21T15:21:28;5.80;;;2.00;;
39540;SDS011;25219;52.244;21.006;2022-08-21T15:23:53;6.70;;;2.13;;
39540;SDS011;25219;52.244;21.006;2022-08-21T15:26:19;2.33;;;2.13;;
39540;SDS011;25219;52.244;21.006;2022-08-21T15:28:45;5.00;;;2.40;;
39540;SDS011;25219;52.244;21.006;2022-08-21T15:31:11;2.47;;;2.00;;
39540;SDS011;25219;52.244;21.006;2022-08-21T15:33:36;4.47;;;2.37;;
39540;SDS011;25219;52.244;21.006;2022-08-21T15:36:01;3.33;;;2.20;;
39540;SDS011;25219;52.244;21.006;2022-08-21T15:38:27;2.35;;;1.98;;
39540;SDS011;25219;52.244;21.006;2022-08-21T15:40:52;2.17;;;1.97;;
39540;SDS011;25219;52.244;21.006;2022-08-21T15:43:28;2.65;;;2.45;;